Time;durP1;ratioP1;P1;durP2;ratioP2;P2;SDS_P1;SDS_P2;PMS_P1;PMS_P2;Temp;Humidity;BMP_temperature;BMP_pressure;BME280_temperature;BME280_humidity;BME280_pressure;Samples;Min_cycle;Max_cycle;Signal;HPM_P1;HPM_P2
2021/06/17 00:00:41;;;;;;;4.30;3.90;;;21.00;90.60;;;;;;1885214;75;21030;-51
2021/06/17 00:03:10;;;;;;;4.25;3.70;;;21.00;90.70;;;;;;1885332;76;21058;-52
2021/06/17 00:05:41;;;;;;;5.87;4.50;;;21.00;90.60;;;;;;1885209;76;21030;-47
2021/06/17 00:08:11;;;;;;;4.75;4.35;;;21.10;90.60;;;;;;1885236;76;21515;-48
2021/06/17 00:10:45;;;;;;;5.85;4.92;;;21.10;90.60;;;;;;1885199;75;21027;-51
2021/06/17 00:13:17;;;;;;;5.60;4.50;;;21.10;90.50;;;;;;1885335;76;21027;-49
2021/06/17 00:15:47;;;;;;;6.62;5.60;;;21.10;90.50;;;;;;1885116;75;21476;-49
2021/06/17 00:18:18;;;;;;;6.08;5.03;;;21.10;90.50;;;;;;1897258;75;21108;-48
2021/06/17 00:20:48;;;;;;;5.78;5.05;;;21.10;90.50;;;;;;1858120;76;21033;-49
2021/06/17 00:23:17;;;;;;;23.22;7.20;;;21.10;90.60;;;;;;1858068;76;21084;-49
2021/06/17 00:25:47;;;;;;;9.95;6.83;;;21.10;90.60;;;;;;1858117;77;21549;-50
2021/06/17 00:28:16;;;;;;;7.35;6.05;;;21.10;90.60;;;;;;1858114;77;21036;-49
2021/06/17 00:30:45;;;;;;;6.55;5.95;;;21.10;90.60;;;;;;1858003;77;21033;-51
2021/06/17 00:33:15;;;;;;;7.45;6.67;;;21.10;90.60;;;;;;1858108;76;21013;-49
2021/06/17 00:35:44;;;;;;;6.78;6.08;;;21.00;90.50;;;;;;1858110;77;20997;-51
2021/06/17 00:38:13;;;;;;;9.43;6.90;;;21.10;90.50;;;;;;1858041;77;21044;-49
2021/06/17 00:40:43;;;;;;;8.28;6.28;;;21.10;90.50;;;;;;1858159;77;21071;-51
2021/06/17 00:43:13;;;;;;;7.42;6.17;;;21.10;90.50;;;;;;1858050;76;21029;-51
2021/06/17 00:45:47;;;;;;;9.45;6.85;;;21.10;90.40;;;;;;1858007;76;21083;-49
2021/06/17 00:48:17;;;;;;;7.80;6.80;;;21.20;90.50;;;;;;1858332;77;21030;-48
2021/06/17 00:50:51;;;;;;;7.40;6.70;;;21.20;90.50;;;;;;1858087;77;21017;-49
2021/06/17 00:53:23;;;;;;;7.92;6.65;;;21.20;90.40;;;;;;1857217;77;21033;-48
2021/06/17 00:55:53;;;;;;;7.15;6.45;;;21.20;90.40;;;;;;1858022;76;21005;-50
2021/06/17 00:58:23;;;;;;;7.45;6.45;;;21.20;90.40;;;;;;1858199;77;21061;-48
2021/06/17 01:00:52;;;;;;;6.20;5.60;;;21.20;90.40;;;;;;1858125;76;21084;-49
2021/06/17 01:03:22;;;;;;;13.38;6.92;;;21.10;90.40;;;;;;1858160;76;21084;-47
2021/06/17 01:05:52;;;;;;;8.83;6.97;;;21.10;90.50;;;;;;1858115;76;21037;-48
2021/06/17 01:08:24;;;;;;;7.60;6.90;;;21.10;90.40;;;;;;1858029;76;21120;-51
2021/06/17 01:11:13;;;;;;;8.13;7.30;;;21.10;90.60;;;;;;1857546;76;21088;-48
2021/06/17 01:13:51;;;;;;;8.73;7.20;;;21.10;90.50;;;;;;1858172;77;21123;-48
2021/06/17 01:16:36;;;;;;;10.03;7.67;;;21.10;90.50;;;;;;1858008;76;21041;-48
2021/06/17 01:19:16;;;;;;;12.33;7.12;;;21.10;90.60;;;;;;1850403;76;21581;-49
2021/06/17 01:22:09;;;;;;;8.20;7.05;;;21.10;90.50;;;;;;1848585;76;21115;-48
2021/06/17 01:24:44;;;;;;;8.90;6.92;;;21.10;90.60;;;;;;1848814;77;21049;-49
2021/06/17 01:27:39;;;;;;;9.73;7.80;;;21.10;90.60;;;;;;1847832;77;21586;-50
2021/06/17 01:30:17;;;;;;;12.88;7.08;;;21.10;90.60;;;;;;1848278;76;21057;-49
2021/06/17 01:32:51;;;;;;;10.48;7.53;;;21.10;90.60;;;;;;1849154;76;21006;-47
2021/06/17 01:35:23;;;;;;;10.35;7.25;;;21.10;90.60;;;;;;1846559;77;21058;-49
2021/06/17 01:37:54;;;;;;;7.80;7.00;;;21.10;90.60;;;;;;1849046;76;21026;-49
2021/06/17 01:40:26;;;;;;;10.05;7.35;;;21.10;90.60;;;;;;1849190;76;21546;-48
2021/06/17 01:42:58;;;;;;;10.32;7.08;;;21.10;90.60;;;;;;1849194;76;21009;-49
2021/06/17 01:45:28;;;;;;;8.78;6.60;;;21.10;90.60;;;;;;1849050;76;21006;-50
2021/06/17 01:47:58;;;;;;;10.63;6.92;;;21.10;90.50;;;;;;1849127;77;21033;-49
2021/06/17 01:50:29;;;;;;;8.05;6.22;;;21.10;90.50;;;;;;1849166;77;21029;-48
2021/06/17 01:52:59;;;;;;;6.75;5.65;;;21.10;90.50;;;;;;1849173;76;21001;-50
2021/06/17 01:55:33;;;;;;;8.30;5.20;;;21.10;90.60;;;;;;1849059;77;21092;-50
2021/06/17 01:58:05;;;;;;;5.72;5.03;;;21.10;90.50;;;;;;1849195;77;21030;-50
2021/06/17 02:00:36;;;;;;;10.25;5.53;;;21.10;90.60;;;;;;1849097;77;21104;-47
2021/06/17 02:03:08;;;;;;;6.53;4.85;;;21.10;90.60;;;;;;1849298;77;21048;-50
2021/06/17 02:05:38;;;;;;;7.20;4.75;;;21.10;90.60;;;;;;1849186;77;21099;-49
2021/06/17 02:08:08;;;;;;;4.70;4.30;;;21.10;90.60;;;;;;1849216;77;21089;-49
2021/06/17 02:10:40;;;;;;;6.50;5.00;;;21.10;90.60;;;;;;1849119;77;21022;-51
2021/06/17 02:13:15;;;;;;;6.50;4.75;;;21.10;90.50;;;;;;1849165;76;21091;-48
2021/06/17 02:15:46;;;;;;;8.68;5.22;;;21.10;90.50;;;;;;1849400;77;21542;-50
2021/06/17 02:18:17;;;;;;;3.60;3.25;;;21.10;90.50;;;;;;1845692;76;21116;-49
2021/06/17 02:20:47;;;;;;;4.95;3.65;;;21.10;90.70;;;;;;1837274;76;21108;-49
2021/06/17 02:23:18;;;;;;;7.05;3.95;;;21.10;90.60;;;;;;1837357;77;21093;-50
2021/06/17 02:25:48;;;;;;;5.15;4.62;;;21.10;90.30;;;;;;1837418;76;21104;-50
2021/06/17 02:28:19;;;;;;;5.10;3.80;;;21.10;90.30;;;;;;1837428;77;21093;-50
2021/06/17 02:30:50;;;;;;;8.45;4.05;;;21.10;90.30;;;;;;1837358;77;21042;-49
2021/06/17 02:33:21;;;;;;;4.95;3.80;;;21.10;90.20;;;;;;1837366;78;21010;-48
2021/06/17 02:35:52;;;;;;;6.17;3.15;;;21.10;90.30;;;;;;1837465;77;21002;-50
2021/06/17 02:38:24;;;;;;;5.12;2.70;;;21.00;90.20;;;;;;1837414;76;21050;-47
2021/06/17 02:40:56;;;;;;;5.05;3.00;;;21.00;90.10;;;;;;1836923;77;21065;-51
2021/06/17 02:43:26;;;;;;;5.87;2.50;;;21.10;90.00;;;;;;1837388;78;21030;-50
2021/06/17 02:45:56;;;;;;;8.38;2.98;;;21.10;90.00;;;;;;1837381;78;21051;-49
2021/06/17 02:48:26;;;;;;;4.62;2.08;;;21.10;89.90;;;;;;1837218;77;21022;-51
2021/06/17 02:50:55;;;;;;;5.40;2.08;;;21.10;89.80;;;;;;1837291;76;21026;-48
2021/06/17 02:53:25;;;;;;;7.65;2.42;;;21.20;89.60;;;;;;1837377;77;21209;-48
2021/06/17 02:55:54;;;;;;;5.28;2.45;;;21.20;89.40;;;;;;1837318;78;21050;-51
2021/06/17 02:58:54;;;;;;;3.70;1.60;;;21.20;89.30;;;;;;1837223;78;21139;-48
2021/06/17 03:01:44;;;;;;;6.10;1.87;;;21.20;89.10;;;;;;1803905;78;21058;-50
2021/06/17 03:04:26;;;;;;;4.80;1.57;;;21.20;88.90;;;;;;1837099;76;21112;-49
2021/06/17 03:06:56;;;;;;;5.00;1.60;;;21.20;88.60;;;;;;1837207;77;21031;-50
2021/06/17 03:09:31;;;;;;;2.52;1.27;;;21.20;88.40;;;;;;1837245;77;21050;-47
2021/06/17 03:12:01;;;;;;;3.02;1.70;;;21.30;88.10;;;;;;1837271;78;21495;-48
2021/06/17 03:14:38;;;;;;;3.37;1.20;;;21.20;87.90;;;;;;1837290;77;21038;-49
2021/06/17 03:17:09;;;;;;;3.27;1.77;;;21.20;88.00;;;;;;1837194;77;21096;-51
2021/06/17 03:19:39;;;;;;;4.97;1.57;;;21.10;88.00;;;;;;1837193;76;21053;-47
2021/06/17 03:22:11;;;;;;;3.50;1.42;;;21.10;88.10;;;;;;1837269;77;21030;-47
2021/06/17 03:24:43;;;;;;;3.70;1.12;;;21.20;88.20;;;;;;1837296;78;21468;-49
2021/06/17 03:27:12;;;;;;;5.97;2.08;;;21.20;88.00;;;;;;1837313;76;21514;-51
2021/06/17 03:29:50;;;;;;;4.40;1.27;;;21.20;87.90;;;;;;1837205;77;21026;-51
2021/06/17 03:32:22;;;;;;;5.37;1.45;;;21.30;87.70;;;;;;1837166;77;21461;-49
2021/06/17 03:34:51;;;;;;;3.67;1.20;;;21.40;87.70;;;;;;1837180;78;21029;-48
2021/06/17 03:37:24;;;;;;;3.17;1.72;;;21.40;87.30;;;;;;1837229;78;21018;-47
2021/06/17 03:39:55;;;;;;;5.78;1.55;;;21.50;87.20;;;;;;1837361;77;21440;-47
2021/06/17 03:42:26;;;;;;;3.85;1.05;;;21.60;86.70;;;;;;1837288;78;21158;-48
2021/06/17 03:44:57;;;;;;;2.83;1.30;;;21.60;86.10;;;;;;1837265;78;21049;-50
2021/06/17 03:47:27;;;;;;;3.35;1.00;;;21.60;85.70;;;;;;1837252;76;21096;-50
2021/06/17 03:49:57;;;;;;;10.03;1.55;;;21.70;85.60;;;;;;1837210;77;21088;-51
2021/06/17 03:52:27;;;;;;;4.00;1.22;;;21.70;85.90;;;;;;1837362;77;21042;-48
2021/06/17 03:54:57;;;;;;;3.60;1.10;;;21.70;85.10;;;;;;1837350;78;21104;-48
2021/06/17 03:57:26;;;;;;;2.62;1.02;;;21.80;85.00;;;;;;1837228;77;21029;-48
2021/06/17 03:59:57;;;;;;;3.10;0.90;;;21.80;84.80;;;;;;1837356;78;21195;-49
2021/06/17 04:02:29;;;;;;;2.85;1.10;;;21.80;84.50;;;;;;1837370;77;21026;-47
2021/06/17 04:04:59;;;;;;;3.00;0.80;;;21.80;84.40;;;;;;1837369;77;21106;-48
2021/06/17 04:07:29;;;;;;;1.90;0.90;;;21.90;84.20;;;;;;1837291;78;21006;-50
2021/06/17 04:10:00;;;;;;;1.57;0.80;;;22.00;84.30;;;;;;1837257;77;21104;-47
2021/06/17 04:12:31;;;;;;;2.83;1.10;;;22.00;84.40;;;;;;1837455;78;21054;-47
2021/06/17 04:15:03;;;;;;;1.85;0.70;;;22.10;84.00;;;;;;1837305;77;21045;-48
2021/06/17 04:17:35;;;;;;;2.35;1.30;;;22.20;83.50;;;;;;1837256;77;21108;-49
2021/06/17 04:20:06;;;;;;;5.62;2.52;;;22.30;83.20;;;;;;1843585;76;21095;-50
2021/06/17 04:22:38;;;;;;;7.47;1.95;;;22.30;82.80;;;;;;1849174;77;21037;-48
2021/06/17 04:25:09;;;;;;;3.02;0.90;;;22.40;82.30;;;;;;1849127;77;21537;-47
2021/06/17 04:27:40;;;;;;;3.42;0.90;;;22.50;82.30;;;;;;1849073;77;20997;-48
2021/06/17 04:30:10;;;;;;;2.33;1.00;;;22.60;82.20;;;;;;1849082;77;21025;-48
2021/06/17 04:32:45;;;;;;;3.00;1.12;;;22.60;82.20;;;;;;1849096;76;21033;-50
2021/06/17 04:35:14;;;;;;;;;;;22.70;82.00;;;;;;1851860;76;21080;-50
2021/06/17 04:37:44;;;;;;;2.40;1.22;;;22.80;80.40;;;;;;1833878;78;20116;-51
2021/06/17 04:40:16;;;;;;;4.55;1.27;;;22.80;80.90;;;;;;1884767;76;21218;-50
2021/06/17 04:42:45;;;;;;;3.27;1.20;;;22.80;80.80;;;;;;1884726;75;21140;-50
2021/06/17 04:45:15;;;;;;;5.08;1.37;;;22.80;80.90;;;;;;1884669;76;21143;-50
2021/06/17 04:47:51;;;;;;;5.50;1.40;;;22.80;80.70;;;;;;1884777;76;21026;-50
2021/06/17 04:50:19;;;;;;;2.62;0.98;;;22.70;80.90;;;;;;1883279;75;21115;-49
2021/06/17 04:53:00;;;;;;;2.58;0.82;;;22.80;81.30;;;;;;1884723;75;21030;-50
2021/06/17 04:55:30;;;;;;;3.20;0.70;;;22.80;81.10;;;;;;1884834;75;21581;-50
2021/06/17 04:57:59;;;;;;;2.55;0.72;;;22.80;80.90;;;;;;1884754;76;21006;-51
2021/06/17 05:00:29;;;;;;;4.72;1.02;;;22.90;81.10;;;;;;1884669;76;21034;-52
2021/06/17 05:02:58;;;;;;;3.83;0.85;;;22.90;81.10;;;;;;1884751;76;21050;-51
2021/06/17 05:05:27;;;;;;;2.20;0.80;;;23.00;81.20;;;;;;1884632;75;21089;-51
2021/06/17 05:10:49;;;;;;;3.58;1.12;;;23.10;80.70;;;;;;1884616;76;21120;-52
2021/06/17 05:13:20;;;;;;;4.53;1.10;;;23.20;80.30;;;;;;1884940;76;21082;-49
2021/06/17 05:15:52;;;;;;;3.02;1.02;;;23.20;79.80;;;;;;1884697;75;21566;-50
2021/06/17 05:18:22;;;;;;;2.50;0.85;;;23.30;79.60;;;;;;1884777;76;21030;-50
2021/06/17 05:20:52;;;;;;;2.92;0.90;;;23.30;79.60;;;;;;1876983;75;21063;-51
2021/06/17 05:23:23;;;;;;;7.15;1.00;;;23.40;79.50;;;;;;1872337;77;21027;-51
2021/06/17 05:25:54;;;;;;;3.98;0.95;;;23.40;79.20;;;;;;1872417;76;21085;-48
2021/06/17 05:28:25;;;;;;;2.58;0.80;;;23.40;78.80;;;;;;1872503;76;21082;-50
2021/06/17 05:30:57;;;;;;;2.90;0.70;;;23.40;78.60;;;;;;1872420;77;21094;-51
2021/06/17 05:33:26;;;;;;;1.62;0.60;;;23.30;78.30;;;;;;1872489;77;21437;-48
2021/06/17 05:35:56;;;;;;;5.25;1.05;;;23.20;78.50;;;;;;1872413;77;21108;-49
2021/06/17 05:38:26;;;;;;;1.60;0.80;;;23.20;78.50;;;;;;1872490;77;21075;-49
2021/06/17 05:40:55;;;;;;;2.50;1.25;;;23.10;78.80;;;;;;1872530;77;21066;-51
2021/06/17 05:43:25;;;;;;;2.75;1.10;;;23.10;79.10;;;;;;1872623;77;21143;-48
2021/06/17 05:45:54;;;;;;;3.25;0.90;;;23.10;78.90;;;;;;1872506;75;21058;-50
2021/06/17 05:48:24;;;;;;;3.35;1.10;;;23.10;79.00;;;;;;1872430;77;21031;-52
2021/06/17 05:50:53;;;;;;;4.42;0.93;;;23.20;78.60;;;;;;1872503;77;21023;-51
2021/06/17 05:53:23;;;;;;;5.92;1.27;;;23.10;78.20;;;;;;1872539;76;21031;-52
2021/06/17 05:55:52;;;;;;;2.65;1.20;;;23.10;78.60;;;;;;1872492;76;21107;-51
2021/06/17 05:58:22;;;;;;;2.42;0.78;;;23.10;78.60;;;;;;1872378;75;21101;-51
2021/06/17 06:00:51;;;;;;;3.50;0.80;;;23.00;78.60;;;;;;1872426;77;21085;-48
2021/06/17 06:03:21;;;;;;;5.97;1.32;;;22.90;78.70;;;;;;1872511;76;21003;-51
2021/06/17 06:05:50;;;;;;;4.47;1.12;;;22.80;79.30;;;;;;1872495;77;21027;-50
2021/06/17 06:08:19;;;;;;;2.58;1.07;;;22.80;79.60;;;;;;1872526;77;21035;-52
2021/06/17 06:10:48;;;;;;;3.00;1.00;;;22.80;80.00;;;;;;1872450;77;21023;-50
2021/06/17 06:13:18;;;;;;;2.60;1.57;;;22.70;80.10;;;;;;1872545;77;21101;-51
2021/06/17 06:15:48;;;;;;;2.65;0.95;;;22.60;80.30;;;;;;1872434;77;21046;-51
2021/06/17 06:18:17;;;;;;;4.83;0.98;;;22.50;80.50;;;;;;1872510;77;21032;-51
2021/06/17 06:20:47;;;;;;;2.62;1.87;;;22.40;80.60;;;;;;1872449;76;21059;-48
2021/06/17 06:23:18;;;;;;;2.90;1.05;;;22.30;80.90;;;;;;1872383;77;21043;-48
2021/06/17 06:25:49;;;;;;;4.47;1.70;;;22.20;81.20;;;;;;1872409;77;21022;-49
2021/06/17 06:28:19;;;;;;;3.65;1.20;;;22.10;81.90;;;;;;1872382;76;21030;-51
2021/06/17 06:30:50;;;;;;;5.10;1.40;;;22.00;82.50;;;;;;1872381;77;21023;-52
2021/06/17 06:33:21;;;;;;;3.47;1.20;;;21.90;82.90;;;;;;1872516;77;21027;-49
2021/06/17 06:35:51;;;;;;;1.98;0.88;;;21.80;83.40;;;;;;1872338;77;21015;-51
2021/06/17 06:38:20;;;;;;;4.37;1.20;;;21.70;83.70;;;;;;1872443;77;21085;-51
2021/06/17 06:40:50;;;;;;;3.98;1.25;;;21.60;84.00;;;;;;1872471;77;21094;-50
2021/06/17 06:43:19;;;;;;;3.45;2.60;;;21.50;84.20;;;;;;1872513;77;21026;-50
2021/06/17 06:45:48;;;;;;;2.45;1.12;;;21.50;84.30;;;;;;1872479;76;21063;-51
2021/06/17 06:48:18;;;;;;;2.55;1.32;;;21.50;84.70;;;;;;1872426;77;21473;-51
2021/06/17 06:50:51;;;;;;;4.95;2.10;;;21.50;85.10;;;;;;1872333;77;21035;-51
2021/06/17 06:53:20;;;;;;;3.65;1.27;;;21.60;85.00;;;;;;1872515;75;21023;-52
2021/06/17 06:55:50;;;;;;;2.22;1.30;;;21.60;85.00;;;;;;1872407;76;21100;-51
2021/06/17 06:58:19;;;;;;;2.45;1.12;;;21.60;85.20;;;;;;1872534;77;21035;-52
2021/06/17 07:00:48;;;;;;;2.80;0.80;;;21.70;85.30;;;;;;1872422;77;21030;-52
2021/06/17 07:03:17;;;;;;;1.82;0.72;;;21.70;85.20;;;;;;1872528;77;21011;-51
2021/06/17 07:05:47;;;;;;;2.35;1.17;;;21.80;85.30;;;;;;1872502;77;21050;-52
2021/06/17 07:08:17;;;;;;;1.30;0.90;;;21.90;85.30;;;;;;1872366;77;21083;-52
2021/06/17 07:10:48;;;;;;;1.12;0.93;;;21.90;85.30;;;;;;1872474;77;21097;-50
2021/06/17 07:13:17;;;;;;;1.52;0.88;;;22.00;85.30;;;;;;1872328;76;21473;-52
2021/06/17 07:15:46;;;;;;;3.20;0.90;;;22.10;85.10;;;;;;1872389;77;21039;-50
2021/06/17 07:18:16;;;;;;;2.22;0.95;;;22.30;85.00;;;;;;1872371;77;21035;-50
2021/06/17 07:20:45;;;;;;;2.67;1.10;;;22.50;84.90;;;;;;1872383;75;21078;-51
2021/06/17 07:23:15;;;;;;;4.55;1.37;;;22.60;84.50;;;;;;1872447;77;21003;-51
2021/06/17 07:25:44;;;;;;;2.27;0.90;;;22.80;84.20;;;;;;1872362;75;21047;-51
2021/06/17 07:28:13;;;;;;;4.22;1.20;;;22.80;83.50;;;;;;1872344;77;21031;-50
2021/06/17 07:30:43;;;;;;;1.75;0.93;;;22.90;83.10;;;;;;1872365;77;21027;-52
2021/06/17 07:33:12;;;;;;;3.67;1.05;;;22.80;82.40;;;;;;1872580;77;21105;-51
2021/06/17 07:35:42;;;;;;;1.55;1.10;;;22.80;82.30;;;;;;1872442;77;21050;-49
2021/06/17 07:38:11;;;;;;;4.50;1.55;;;22.70;82.30;;;;;;1872467;77;21031;-51
2021/06/17 07:40:42;;;;;;;3.95;2.42;;;22.60;82.30;;;;;;1872526;77;21104;-48
2021/06/17 07:43:11;;;;;;;9.20;3.58;;;22.60;82.40;;;;;;1872619;77;21023;-51
2021/06/17 07:45:40;;;;;;;2.85;1.30;;;22.50;82.70;;;;;;1872537;77;21031;-51
2021/06/17 07:48:14;;;;;;;7.17;4.35;;;22.50;82.80;;;;;;1872624;77;21043;-51
2021/06/17 07:50:44;;;;;;;4.67;1.50;;;22.60;82.80;;;;;;1872885;77;21015;-51
2021/06/17 07:53:13;;;;;;;3.90;1.52;;;22.60;82.80;;;;;;1872788;76;21516;-51
2021/06/17 07:55:44;;;;;;;4.62;1.52;;;22.60;82.90;;;;;;1872657;76;21018;-51
2021/06/17 07:58:15;;;;;;;2.90;1.32;;;22.70;83.10;;;;;;1872628;77;21035;-52
2021/06/17 08:00:44;;;;;;;6.15;1.40;;;22.80;83.20;;;;;;1872554;77;21027;-51
2021/06/17 08:03:14;;;;;;;2.60;1.50;;;22.90;83.30;;;;;;1872546;77;21023;-51
2021/06/17 08:05:43;;;;;;;2.02;1.30;;;23.00;83.00;;;;;;1872559;77;21026;-50
2021/06/17 08:08:12;;;;;;;3.08;1.07;;;23.10;82.50;;;;;;1872531;76;21023;-51
2021/06/17 08:10:42;;;;;;;4.30;1.57;;;23.20;82.30;;;;;;1872501;77;21105;-50
2021/06/17 08:13:11;;;;;;;4.50;1.15;;;23.30;81.40;;;;;;1872017;76;21034;-51
2021/06/17 08:15:41;;;;;;;5.10;1.07;;;23.50;81.00;;;;;;1871397;77;21007;-51
2021/06/17 08:18:10;;;;;;;6.53;1.20;;;23.60;80.50;;;;;;1871950;76;21070;-49
2021/06/17 08:20:40;;;;;;;3.30;1.30;;;23.70;80.00;;;;;;1871834;77;21100;-51
2021/06/17 08:23:10;;;;;;;1.57;1.15;;;23.80;80.20;;;;;;1888848;76;21046;-48
2021/06/17 08:25:39;;;;;;;3.62;0.95;;;24.00;79.40;;;;;;1893198;76;21033;-49
2021/06/17 08:28:09;;;;;;;4.60;1.40;;;24.00;79.30;;;;;;1892816;75;21103;-49
2021/06/17 08:30:39;;;;;;;5.25;2.25;;;24.00;78.30;;;;;;1892961;76;21205;-48
2021/06/17 08:33:08;;;;;;;5.15;1.45;;;24.00;78.20;;;;;;1893071;76;21143;-50
2021/06/17 08:35:37;;;;;;;4.60;1.30;;;24.00;78.00;;;;;;1892896;76;21081;-48
2021/06/17 08:38:06;;;;;;;3.92;1.50;;;24.00;77.90;;;;;;1892934;76;21139;-48
2021/06/17 08:40:36;;;;;;;4.62;1.80;;;23.90;78.10;;;;;;1893112;76;21135;-46
2021/06/17 08:43:05;;;;;;;5.83;1.70;;;23.90;78.40;;;;;;1893076;76;21026;-51
2021/06/17 08:45:35;;;;;;;2.08;1.20;;;23.90;78.50;;;;;;1892972;76;21088;-51
2021/06/17 08:48:04;;;;;;;3.50;1.60;;;23.90;78.40;;;;;;1893098;76;21104;-54
2021/06/17 08:50:33;;;;;;;6.22;1.65;;;23.90;78.50;;;;;;1893254;76;21064;-48
2021/06/17 08:53:04;;;;;;;2.50;1.10;;;24.00;78.50;;;;;;1893126;76;21073;-48
2021/06/17 08:55:34;;;;;;;8.38;1.62;;;24.00;78.40;;;;;;1892969;76;21073;-46
2021/06/17 08:58:04;;;;;;;4.70;1.80;;;24.20;78.70;;;;;;1893105;76;21111;-52
2021/06/17 09:00:36;;;;;;;1.30;0.95;;;24.30;78.30;;;;;;1892942;76;21018;-48
2021/06/17 09:03:08;;;;;;;1.80;1.30;;;24.50;77.70;;;;;;1893329;76;21034;-49
2021/06/17 09:05:39;;;;;;;3.80;1.40;;;24.60;77.00;;;;;;1892413;76;21475;-48
2021/06/17 09:08:10;;;;;;;2.95;1.25;;;24.70;76.90;;;;;;1893039;74;21539;-50
2021/06/17 09:10:41;;;;;;;2.55;1.62;;;24.70;76.30;;;;;;1892913;76;21034;-50
2021/06/17 09:13:11;;;;;;;4.62;1.17;;;24.70;76.00;;;;;;1893088;76;21033;-52
2021/06/17 09:15:51;;;;;;;2.40;1.02;;;24.70;75.90;;;;;;1892887;75;21101;-52
2021/06/17 09:18:28;;;;;;;5.22;1.45;;;24.70;74.90;;;;;;1893009;76;21042;-49
2021/06/17 09:21:03;;;;;;;5.65;1.27;;;24.60;74.50;;;;;;1892983;76;21092;-47
2021/06/17 09:23:38;;;;;;;5.83;1.12;;;24.50;74.60;;;;;;1895357;74;21053;-52
2021/06/17 09:26:12;;;;;;;1.52;1.17;;;24.40;74.60;;;;;;1896516;75;21125;-47
2021/06/17 09:29:01;;;;;;;4.15;1.50;;;24.30;75.40;;;;;;1896630;74;21116;-46
2021/06/17 09:31:31;;;;;;;4.55;1.95;;;24.20;75.50;;;;;;1896148;75;21084;-51
2021/06/17 09:34:01;;;;;;;4.33;2.10;;;24.20;75.50;;;;;;1896411;75;21017;-49
2021/06/17 09:36:32;;;;;;;3.85;1.20;;;24.10;75.60;;;;;;1896244;76;21503;-47
2021/06/17 09:39:04;;;;;;;2.05;0.88;;;24.10;76.00;;;;;;1896405;76;21049;-51
2021/06/17 09:41:42;;;;;;;4.78;1.20;;;24.10;76.10;;;;;;1896560;76;21159;-47
2021/06/17 09:44:31;;;;;;;1.65;0.93;;;24.10;76.10;;;;;;1896434;74;21085;-48
2021/06/17 09:47:11;;;;;;;1.10;0.93;;;24.20;75.80;;;;;;1896094;76;21116;-50
2021/06/17 09:49:42;;;;;;;6.53;1.17;;;24.30;75.30;;;;;;1896519;75;21029;-48
2021/06/17 09:52:12;;;;;;;2.83;1.37;;;24.40;75.30;;;;;;1896352;76;21065;-48
2021/06/17 09:54:43;;;;;;;6.17;1.57;;;24.60;75.30;;;;;;1896532;76;21095;-48
2021/06/17 09:57:23;;;;;;;6.12;1.35;;;24.70;75.00;;;;;;1896486;76;21077;-50
2021/06/17 09:59:54;;;;;;;2.62;1.20;;;24.80;74.10;;;;;;1896441;75;21092;-49
2021/06/17 10:02:30;;;;;;;2.98;1.00;;;24.80;74.60;;;;;;1896477;76;21006;-50
2021/06/17 10:05:22;;;;;;;1.45;1.27;;;24.70;75.20;;;;;;1896190;75;21100;-47
2021/06/17 10:07:52;;;;;;;2.37;1.27;;;24.50;75.30;;;;;;1896429;76;21101;-47
2021/06/17 10:10:25;;;;;;;1.50;0.82;;;24.40;76.50;;;;;;1896434;76;21022;-48
2021/06/17 10:12:55;;;;;;;3.58;1.00;;;24.30;76.50;;;;;;1896456;75;21026;-47
2021/06/17 10:15:26;;;;;;;1.20;0.60;;;24.40;76.90;;;;;;1896493;76;21045;-48
2021/06/17 10:17:55;;;;;;;1.42;0.80;;;24.40;76.60;;;;;;1896431;76;21084;-49
2021/06/17 10:20:25;;;;;;;4.70;0.90;;;24.50;76.50;;;;;;1896233;76;21069;-50
2021/06/17 10:22:56;;;;;;;4.67;1.25;;;24.60;76.20;;;;;;1888736;75;21109;-49
2021/06/17 10:25:27;;;;;;;2.45;0.70;;;24.60;75.10;;;;;;1862494;76;21517;-50
2021/06/17 10:28:05;;;;;;;2.05;0.98;;;24.80;74.60;;;;;;1862458;77;21059;-47
2021/06/17 10:30:44;;;;;;;;;;;24.90;73.60;;;;;;1864772;76;21070;-49
2021/06/17 10:33:31;;;;;;;2.27;0.75;;;24.90;72.00;;;;;;1862575;77;20137;-51
2021/06/17 10:36:23;;;;;;;2.33;0.85;;;24.90;71.40;;;;;;1849204;77;21081;-51
2021/06/17 10:39:10;;;;;;;2.90;0.78;;;24.90;72.40;;;;;;1862400;77;21548;-51
2021/06/17 10:41:54;;;;;;;0.82;0.80;;;24.90;72.40;;;;;;1850006;77;21019;-51
2021/06/17 10:44:50;;;;;;;2.90;0.98;;;25.00;72.00;;;;;;1862411;76;21055;-48
2021/06/17 10:47:41;;;;;;;3.08;1.00;;;25.20;72.10;;;;;;1860946;77;21047;-51
2021/06/17 10:50:27;;;;;;;4.55;0.90;;;25.20;71.10;;;;;;1862269;77;21048;-52
2021/06/17 10:53:14;;;;;;;2.17;0.85;;;25.20;70.30;;;;;;1817687;77;21027;-52
2021/06/17 10:55:56;;;;;;;3.10;0.90;;;25.00;70.00;;;;;;1862425;77;21085;-51
2021/06/17 10:58:46;;;;;;;1.27;0.80;;;24.90;70.50;;;;;;1862714;77;21438;-52
2021/06/17 11:01:33;;;;;;;2.52;1.40;;;24.60;72.00;;;;;;1863064;77;21047;-52
2021/06/17 11:04:05;;;;;;;1.82;1.20;;;24.40;72.80;;;;;;1863053;77;21019;-52
2021/06/17 11:06:55;;;;;;;11.45;2.22;;;24.20;73.70;;;;;;1863064;77;21089;-50
2021/06/17 11:09:46;;;;;;;3.40;1.40;;;23.90;74.40;;;;;;1863129;77;21417;-52
2021/06/17 11:12:20;;;;;;;1.32;1.05;;;23.60;75.10;;;;;;1842941;76;21026;-49
2021/06/17 11:14:54;;;;;;;2.55;1.20;;;23.40;75.90;;;;;;1863107;77;21101;-49
2021/06/17 11:17:37;;;;;;;3.20;1.20;;;23.20;76.70;;;;;;1863054;77;21082;-50
2021/06/17 11:20:09;;;;;;;3.75;1.12;;;23.00;77.40;;;;;;1861813;76;21114;-50
2021/06/17 11:22:57;;;;;;;3.58;1.70;;;22.90;77.80;;;;;;1863178;77;21015;-50
2021/06/17 11:25:25;;;;;;;2.30;1.20;;;22.80;78.50;;;;;;1862655;76;21505;-50
2021/06/17 11:28:03;;;;;;;1.65;1.20;;;22.70;78.80;;;;;;1863021;77;21093;-48
2021/06/17 11:30:53;;;;;;;1.90;1.17;;;22.70;78.80;;;;;;1863080;77;21093;-47
2021/06/17 11:33:20;;;;;;;2.77;1.22;;;22.60;79.10;;;;;;1862480;77;21051;-49
2021/06/17 11:36:03;;;;;;;2.65;1.30;;;22.60;79.40;;;;;;1863079;77;21035;-47
2021/06/17 11:38:37;;;;;;;1.52;1.05;;;22.60;79.60;;;;;;1862995;77;21019;-49
2021/06/17 11:41:17;;;;;;;1.55;1.30;;;22.50;79.70;;;;;;1863141;77;21016;-49
2021/06/17 11:43:52;;;;;;;1.60;1.40;;;22.50;79.80;;;;;;1863116;77;21082;-50
2021/06/17 11:46:21;;;;;;;;;;;22.50;79.90;;;;;;1864688;77;21004;-51
2021/06/17 11:48:55;;;;;;;3.45;1.75;;;22.40;80.50;;;;;;1862931;77;20107;-49
2021/06/17 11:51:25;;;;;;;3.90;1.50;;;22.50;80.10;;;;;;1863275;77;21097;-50
2021/06/17 11:53:56;;;;;;;2.42;1.40;;;22.50;80.20;;;;;;1863205;77;21023;-49
2021/06/17 11:56:27;;;;;;;1.25;1.00;;;22.60;80.50;;;;;;1863042;76;21031;-50
2021/06/17 11:58:57;;;;;;;2.33;1.02;;;22.70;80.60;;;;;;1862900;77;21050;-49
2021/06/17 12:01:26;;;;;;;2.85;1.72;;;22.70;80.50;;;;;;1862940;77;21003;-47
2021/06/17 12:04:09;;;;;;;1.98;1.40;;;22.70;80.50;;;;;;1863064;77;21533;-50
2021/06/17 12:06:34;;;;;;;1.77;1.00;;;22.70;80.50;;;;;;1862183;77;21109;-49
2021/06/17 12:09:07;;;;;;;1.57;1.32;;;22.80;80.70;;;;;;1863025;77;21047;-51
2021/06/17 12:11:36;;;;;;;1.27;1.00;;;22.80;80.50;;;;;;1863099;77;21031;-51
2021/06/17 12:14:06;;;;;;;1.87;1.22;;;22.80;80.30;;;;;;1862997;77;21007;-51
2021/06/17 12:16:35;;;;;;;1.80;1.45;;;22.90;80.40;;;;;;1863170;77;21104;-50
2021/06/17 12:19:07;;;;;;;1.55;0.98;;;22.90;80.20;;;;;;1863218;76;21108;-50
2021/06/17 12:21:38;;;;;;;1.47;1.00;;;22.90;80.10;;;;;;1861047;76;21160;-50
2021/06/17 12:24:12;;;;;;;1.32;1.15;;;22.90;80.10;;;;;;1863116;75;21055;-48
2021/06/17 12:26:43;;;;;;;1.52;1.42;;;22.90;80.40;;;;;;1863324;77;21166;-47
2021/06/17 12:29:13;;;;;;;2.77;1.77;;;22.90;80.10;;;;;;1863106;77;21047;-47
2021/06/17 12:31:42;;;;;;;2.67;1.30;;;23.00;80.20;;;;;;1863127;77;21113;-50
2021/06/17 12:34:18;;;;;;;1.50;1.40;;;23.10;80.20;;;;;;1863052;77;21003;-50
2021/06/17 12:37:02;;;;;;;1.92;1.42;;;23.20;79.80;;;;;;1863228;77;21098;-52
2021/06/17 12:39:31;;;;;;;1.35;1.25;;;23.40;79.80;;;;;;1862885;77;21496;-52
2021/06/17 12:42:01;;;;;;;2.77;1.75;;;23.50;79.50;;;;;;1863071;77;21027;-48
2021/06/17 12:44:33;;;;;;;3.15;2.05;;;23.50;78.90;;;;;;1863098;77;21096;-49
2021/06/17 12:47:07;;;;;;;2.47;1.47;;;23.60;79.10;;;;;;1863167;77;21156;-51
2021/06/17 12:52:35;;;;;;;2.27;1.52;;;23.70;77.70;;;;;;1863249;77;21090;-51
2021/06/17 12:55:06;;;;;;;1.65;1.55;;;23.70;77.80;;;;;;1862985;77;21007;-49
2021/06/17 12:57:35;;;;;;;3.17;1.95;;;23.70;77.30;;;;;;1863135;76;21032;-50
2021/06/17 13:00:14;;;;;;;3.42;1.80;;;23.70;77.30;;;;;;1863098;77;20999;-52
2021/06/17 13:02:46;;;;;;;3.62;2.58;;;23.70;76.70;;;;;;1858587;77;21109;-51
2021/06/17 13:05:23;;;;;;;3.35;1.70;;;23.70;76.90;;;;;;1863073;76;21023;-49
2021/06/17 13:08:11;;;;;;;4.03;2.17;;;23.70;77.10;;;;;;1863112;76;21023;-50
2021/06/17 13:10:51;;;;;;;4.65;2.50;;;23.80;76.80;;;;;;1863126;77;21078;-50
2021/06/17 13:13:25;;;;;;;8.23;3.65;;;23.90;77.10;;;;;;1863020;76;21102;-52
2021/06/17 13:15:56;;;;;;;5.37;2.02;;;24.00;76.50;;;;;;1863128;76;21027;-52
2021/06/17 13:18:31;;;;;;;2.80;1.75;;;24.00;75.30;;;;;;1863076;77;21027;-51
2021/06/17 13:21:01;;;;;;;3.95;1.92;;;24.00;74.80;;;;;;1862663;77;21031;-52